Time;durP1;ratioP1;P1;durP2;ratioP2;P2;SDS_P1;SDS_P2;PMS_P1;PMS_P2;Temp;Humidity;BMP_temperature;BMP_pressure;BME280_temperature;BME280_humidity;BME280_pressure;Samples;Min_cycle;Max_cycle;Signal;HPM_P1;HPM_P2
2022/06/26 00:01:36;;;;;;;29.17;20.10;;;18.60;99.90;;;;;;6271276;22;20352;-78
2022/06/26 00:04:02;;;;;;;28.38;20.38;;;18.60;99.90;;;;;;6271602;22;20447;-78
2022/06/26 00:06:28;;;;;;;24.55;19.63;;;18.60;99.90;;;;;;6272247;22;20019;-78
2022/06/26 00:08:54;;;;;;;24.52;19.98;;;18.60;99.90;;;;;;6271072;22;20015;-78
2022/06/26 00:11:20;;;;;;;25.60;20.73;;;18.60;99.90;;;;;;6272396;22;20030;-78
2022/06/26 00:13:45;;;;;;;26.00;21.52;;;18.60;99.90;;;;;;6271272;22;20016;-78
2022/06/26 00:16:11;;;;;;;26.40;18.98;;;18.60;99.90;;;;;;6271384;22;20028;-78
2022/06/26 00:18:37;;;;;;;25.98;21.23;;;18.60;99.90;;;;;;6272210;22;20023;-78
2022/06/26 00:21:05;;;;;;;24.95;19.67;;;18.50;99.90;;;;;;6271296;22;20392;-78
2022/06/26 00:23:31;;;;;;;36.42;20.08;;;18.50;99.90;;;;;;6272010;22;20355;-78
2022/06/26 00:25:57;;;;;;;28.63;21.73;;;18.40;99.90;;;;;;6270739;22;20448;-78
2022/06/26 00:28:22;;;;;;;29.55;21.13;;;18.40;99.90;;;;;;6272430;22;20030;-78
2022/06/26 00:30:48;;;;;;;32.28;23.85;;;18.40;99.90;;;;;;6271240;22;20022;-78
2022/06/26 00:33:14;;;;;;;30.17;22.63;;;18.40;99.90;;;;;;6246853;22;20298;-78
2022/06/26 00:35:40;;;;;;;31.05;22.83;;;18.40;99.90;;;;;;6271924;22;20019;-78
2022/06/26 00:38:06;;;;;;;28.33;23.55;;;18.40;99.90;;;;;;6271211;22;20358;-78
2022/06/26 00:40:32;;;;;;;29.25;22.23;;;18.40;99.90;;;;;;6245897;22;20023;-78
2022/06/26 00:42:57;;;;;;;29.15;22.13;;;18.30;99.90;;;;;;6271804;22;20015;-78
2022/06/26 00:45:23;;;;;;;40.67;25.25;;;18.30;99.90;;;;;;6271964;22;20068;-79
2022/06/26 00:47:49;;;;;;;25.67;20.52;;;18.30;99.90;;;;;;6271003;22;20040;-78
2022/06/26 00:50:14;;;;;;;27.42;21.10;;;18.30;99.90;;;;;;6246477;22;20019;-78
2022/06/26 00:52:40;;;;;;;26.25;21.63;;;18.20;99.90;;;;;;6272070;22;20376;-79
2022/06/26 00:55:09;;;;;;;26.88;20.50;;;18.10;99.90;;;;;;6271038;22;20114;-78
2022/06/26 00:57:35;;;;;;;25.38;20.33;;;18.10;99.90;;;;;;6271670;22;20484;-79
2022/06/26 01:00:03;;;;;;;24.80;19.98;;;18.10;99.90;;;;;;6245777;22;20015;-79
2022/06/26 01:02:29;;;;;;;27.05;20.90;;;18.00;99.90;;;;;;6246691;22;20011;-79
2022/06/26 01:04:55;;;;;;;32.38;24.30;;;17.90;99.90;;;;;;6270861;22;20096;-78
2022/06/26 01:07:20;;;;;;;26.45;20.92;;;17.90;99.90;;;;;;6271892;22;20015;-78
2022/06/26 01:09:46;;;;;;;25.15;19.80;;;17.80;99.90;;;;;;6245529;22;20435;-78
2022/06/26 01:12:12;;;;;;;20.27;17.88;;;17.80;99.90;;;;;;6271137;22;20038;-78
2022/06/26 01:14:38;;;;;;;22.48;18.55;;;17.80;99.90;;;;;;6271783;22;20011;-79
2022/06/26 01:17:04;;;;;;;34.10;23.00;;;17.70;99.90;;;;;;6271304;22;20023;-78
2022/06/26 01:19:30;;;;;;;26.58;19.73;;;17.60;99.90;;;;;;6246069;22;20027;-78
2022/06/26 01:21:57;;;;;;;22.70;16.58;;;17.60;99.90;;;;;;6270755;22;20023;-78
2022/06/26 01:24:22;;;;;;;24.10;18.48;;;17.60;99.90;;;;;;6271950;22;20024;-79
2022/06/26 01:26:48;;;;;;;28.73;22.25;;;17.60;99.90;;;;;;6271316;22;20029;-78
2022/06/26 01:29:14;;;;;;;27.73;21.48;;;17.60;99.90;;;;;;6271508;22;20022;-78
2022/06/26 01:31:40;;;;;;;22.35;20.00;;;17.60;99.90;;;;;;6271420;22;20039;-78
2022/06/26 01:34:07;;;;;;;27.95;21.23;;;17.50;99.90;;;;;;6271033;22;20350;-78
2022/06/26 01:36:33;;;;;;;28.60;20.65;;;17.50;99.90;;;;;;6271255;22;20015;-78
2022/06/26 01:38:59;;;;;;;26.92;20.92;;;17.50;99.90;;;;;;6245443;22;20098;-78
2022/06/26 01:41:25;;;;;;;26.90;20.85;;;17.50;99.90;;;;;;6271690;22;20012;-78
2022/06/26 01:43:51;;;;;;;32.40;19.30;;;17.40;99.90;;;;;;6245617;22;20019;-78
2022/06/26 01:46:17;;;;;;;26.85;20.60;;;17.40;99.90;;;;;;6271216;22;20019;-78
2022/06/26 01:48:42;;;;;;;25.25;18.48;;;17.40;99.90;;;;;;6271029;22;20498;-78
2022/06/26 01:51:09;;;;;;;24.65;18.20;;;17.40;99.90;;;;;;6271108;22;20027;-78
2022/06/26 01:53:36;;;;;;;25.58;19.83;;;17.40;99.90;;;;;;6271073;22;20015;-79
2022/06/26 01:56:03;;;;;;;21.48;16.75;;;17.40;99.90;;;;;;6270397;22;20433;-79
2022/06/26 01:58:29;;;;;;;15.60;13.40;;;17.40;99.90;;;;;;6245775;22;20098;-78
2022/06/26 02:00:55;;;;;;;26.33;19.50;;;17.30;99.90;;;;;;6270424;22;20050;-79
2022/06/26 02:03:23;;;;;;;20.02;16.95;;;17.30;99.90;;;;;;6271943;22;20050;-79
2022/06/26 02:05:49;;;;;;;22.27;18.65;;;17.30;99.90;;;;;;6245248;22;20446;-79
2022/06/26 02:08:16;;;;;;;22.52;19.25;;;17.40;99.90;;;;;;6270932;22;20023;-79
2022/06/26 02:13:45;;;;;;;23.45;20.60;;;17.40;99.90;;;;;;6271140;22;20019;-78
2022/06/26 02:16:20;;;;;;;31.83;23.58;;;17.40;99.90;;;;;;6271585;22;20015;-79
2022/06/26 02:18:51;;;;;;;30.40;21.75;;;17.50;99.90;;;;;;6245418;22;20016;-78
2022/06/26 02:21:19;;;;;;;27.30;21.70;;;17.60;99.90;;;;;;6271171;22;20015;-78
2022/06/26 02:23:46;;;;;;;26.02;19.52;;;17.60;99.90;;;;;;6273201;22;20023;-80
2022/06/26 02:26:12;;;;;;;27.50;21.50;;;17.70;99.90;;;;;;6272639;22;20015;-80
2022/06/26 02:28:39;;;;;;;29.90;22.20;;;17.80;99.90;;;;;;6273141;22;20617;-77
2022/06/26 02:31:06;;;;;;;25.23;20.42;;;17.90;99.90;;;;;;6272230;22;20098;-78
2022/06/26 02:33:32;;;;;;;23.45;18.35;;;17.90;99.90;;;;;;6273555;22;20050;-77
2022/06/26 02:36:04;;;;;;;20.27;16.13;;;17.90;99.90;;;;;;6272664;22;20459;-77
2022/06/26 02:38:29;;;;;;;21.98;15.23;;;17.90;99.90;;;;;;6273259;22;20015;-78
2022/06/26 02:40:55;;;;;;;19.95;15.35;;;17.90;99.90;;;;;;6272769;22;20065;-79
2022/06/26 02:43:24;;;;;;;20.55;14.07;;;17.90;99.90;;;;;;6246981;22;20016;-78
2022/06/26 02:45:55;;;;;;;17.60;13.23;;;18.00;99.90;;;;;;6272862;22;20012;-77
2022/06/26 02:48:21;;;;;;;20.80;13.18;;;18.00;99.90;;;;;;6272073;22;20054;-77
2022/06/26 02:50:47;;;;;;;18.67;12.90;;;18.00;99.90;;;;;;6273442;22;20022;-77
2022/06/26 02:53:15;;;;;;;15.45;11.95;;;18.00;99.90;;;;;;6299499;22;20019;-78
2022/06/26 02:55:40;;;;;;;18.85;12.25;;;18.00;99.90;;;;;;6273393;22;20011;-78
2022/06/26 02:58:06;;;;;;;13.43;9.57;;;18.00;99.90;;;;;;6272480;22;20050;-78
2022/06/26 03:00:32;;;;;;;13.07;10.23;;;18.00;99.90;;;;;;6272580;22;20019;-78
2022/06/26 03:03:01;;;;;;;13.27;9.82;;;18.00;99.90;;;;;;6272861;22;20399;-77
2022/06/26 03:05:28;;;;;;;12.00;9.73;;;18.00;99.90;;;;;;6272598;22;20034;-78
2022/06/26 03:07:56;;;;;;;12.85;9.15;;;18.00;99.90;;;;;;6272882;22;20051;-78
2022/06/26 03:10:22;;;;;;;14.35;9.05;;;18.00;99.90;;;;;;6271817;22;20019;-79
2022/06/26 03:12:49;;;;;;;13.80;9.68;;;18.00;99.90;;;;;;6273026;22;20015;-79
2022/06/26 03:15:16;;;;;;;11.32;9.20;;;18.00;99.90;;;;;;6271547;22;20019;-79
2022/06/26 03:17:42;;;;;;;14.20;9.18;;;18.00;99.90;;;;;;6272985;22;20019;-78
2022/06/26 03:20:16;;;;;;;16.10;9.20;;;18.00;99.90;;;;;;6271807;22;20016;-78
2022/06/26 03:22:43;;;;;;;8.98;7.00;;;17.90;99.90;;;;;;6272382;22;20560;-79
2022/06/26 03:25:09;;;;;;;12.05;6.05;;;17.90;99.90;;;;;;6272414;22;20442;-78
2022/06/26 03:27:36;;;;;;;10.07;6.05;;;17.80;99.90;;;;;;6271931;22;20015;-78
2022/06/26 03:30:03;;;;;;;9.15;5.45;;;17.90;99.90;;;;;;6272216;22;20015;-79
2022/06/26 03:32:29;;;;;;;8.00;5.80;;;17.90;99.90;;;;;;6272213;22;20015;-78
2022/06/26 03:34:55;;;;;;;8.60;5.20;;;17.90;99.90;;;;;;6246969;22;20023;-77
2022/06/26 03:37:21;;;;;;;7.47;5.15;;;17.90;99.90;;;;;;6272101;22;20011;-78
2022/06/26 03:39:46;;;;;;;6.85;3.90;;;17.90;99.90;;;;;;6272130;22;20038;-75
2022/06/26 03:42:12;;;;;;;4.25;3.22;;;17.80;99.90;;;;;;6272125;22;20027;-78
2022/06/26 03:44:38;;;;;;;8.60;2.60;;;17.80;99.90;;;;;;6271893;22;20131;-78
2022/06/26 03:47:04;;;;;;;4.07;2.95;;;17.70;99.90;;;;;;6272967;22;20015;-79
2022/06/26 03:49:30;;;;;;;4.93;2.15;;;17.80;99.90;;;;;;6271995;22;20543;-78
2022/06/26 03:51:55;;;;;;;4.90;2.20;;;17.70;99.90;;;;;;6272435;22;20022;-77
2022/06/26 03:54:21;;;;;;;5.53;2.80;;;17.80;99.90;;;;;;6246078;22;20077;-78
2022/06/26 03:56:48;;;;;;;3.08;2.30;;;17.80;99.90;;;;;;6272314;22;20012;-78
2022/06/26 03:59:13;;;;;;;2.78;2.33;;;17.80;99.90;;;;;;6271422;22;20372;-78
2022/06/26 04:01:39;;;;;;;5.03;2.35;;;17.70;99.90;;;;;;6271919;22;20016;-77
2022/06/26 04:04:05;;;;;;;3.20;2.00;;;17.80;99.90;;;;;;6271958;22;20012;-77
2022/06/26 04:06:31;;;;;;;2.30;1.73;;;17.70;99.90;;;;;;6272162;22;20450;-79
2022/06/26 04:08:57;;;;;;;2.20;2.10;;;17.70;99.90;;;;;;6272105;22;20023;-78
2022/06/26 04:11:23;;;;;;;3.92;1.90;;;17.60;99.90;;;;;;6271160;22;20345;-77
2022/06/26 04:13:49;;;;;;;1.83;1.40;;;17.60;99.90;;;;;;6272220;22;20016;-78
2022/06/26 04:16:18;;;;;;;3.40;1.80;;;17.60;99.90;;;;;;6271415;22;20026;-79
2022/06/26 04:18:44;;;;;;;2.33;1.35;;;17.50;99.90;;;;;;6246207;22;20193;-77
2022/06/26 04:21:10;;;;;;;3.15;1.20;;;17.50;99.90;;;;;;6246301;22;20071;-77
2022/06/26 04:23:36;;;;;;;2.67;1.60;;;17.60;99.90;;;;;;6271666;22;20098;-78
2022/06/26 04:26:01;;;;;;;5.63;1.70;;;17.60;99.90;;;;;;6272607;22;20018;-77
2022/06/26 04:28:27;;;;;;;3.08;1.40;;;17.60;99.90;;;;;;6271371;22;20019;-78
2022/06/26 04:30:53;;;;;;;4.28;1.48;;;17.70;99.90;;;;;;6271844;22;20015;-76
2022/06/26 04:33:18;;;;;;;4.10;1.17;;;17.80;99.90;;;;;;6271324;22;20019;-77
2022/06/26 04:35:44;;;;;;;2.38;1.20;;;17.80;99.90;;;;;;6299658;22;20031;-77
2022/06/26 04:38:10;;;;;;;2.85;1.10;;;17.90;99.90;;;;;;6297079;22;20123;-76
2022/06/26 04:40:35;;;;;;;3.63;1.17;;;17.90;99.90;;;;;;6246180;22;20043;-76
2022/06/26 04:43:01;;;;;;;1.50;1.40;;;18.00;99.90;;;;;;6272432;22;20019;-77
2022/06/26 04:45:27;;;;;;;2.58;1.50;;;18.00;99.90;;;;;;6271046;22;20498;-77
2022/06/26 04:47:52;;;;;;;2.65;1.40;;;18.10;99.90;;;;;;6221480;22;20019;-77
2022/06/26 04:50:18;;;;;;;3.08;1.40;;;18.20;99.90;;;;;;6271026;22;20057;-77
2022/06/26 04:52:49;;;;;;;3.50;1.65;;;18.20;99.90;;;;;;6272053;22;20012;-77
2022/06/26 04:55:15;;;;;;;1.95;1.30;;;18.20;99.90;;;;;;6271056;22;20015;-76
2022/06/26 04:57:41;;;;;;;1.42;1.33;;;18.20;99.90;;;;;;6271613;22;20038;-76
2022/06/26 05:00:14;;;;;;;3.17;1.50;;;18.20;99.90;;;;;;6271598;22;20034;-77
2022/06/26 05:02:39;;;;;;;1.98;1.42;;;18.20;99.90;;;;;;6271058;22;20025;-76
2022/06/26 05:05:06;;;;;;;1.88;1.20;;;18.10;99.90;;;;;;6272051;22;20392;-76
2022/06/26 05:07:32;;;;;;;3.15;1.00;;;18.10;99.90;;;;;;6270986;22;20057;-77
2022/06/26 05:09:59;;;;;;;3.08;1.20;;;18.10;99.90;;;;;;6272053;22;20034;-76
2022/06/26 05:12:26;;;;;;;2.60;0.95;;;18.10;99.90;;;;;;6271564;22;20053;-76
2022/06/26 05:14:51;;;;;;;2.17;1.00;;;18.10;99.90;;;;;;6271172;22;20053;-76
2022/06/26 05:17:17;;;;;;;1.13;1.02;;;18.00;99.90;;;;;;6271452;22;20015;-75
2022/06/26 05:19:43;;;;;;;1.10;1.00;;;18.00;99.90;;;;;;6271325;22;20345;-76
2022/06/26 05:22:09;;;;;;;0.90;0.82;;;18.00;99.90;;;;;;6272164;22;20050;-76
2022/06/26 05:24:35;;;;;;;0.82;0.80;;;18.00;99.90;;;;;;6270823;22;20077;-76
2022/06/26 05:27:00;;;;;;;3.63;1.25;;;18.00;99.90;;;;;;6272088;22;20011;-75
2022/06/26 05:29:26;;;;;;;1.63;1.00;;;18.00;99.90;;;;;;6245173;22;20041;-76
2022/06/26 05:31:52;;;;;;;1.55;1.20;;;18.00;99.90;;;;;;6271725;22;20023;-75
2022/06/26 05:34:18;;;;;;;1.63;1.10;;;17.90;99.90;;;;;;6271186;22;20011;-77
2022/06/26 05:36:44;;;;;;;1.52;1.00;;;17.90;99.90;;;;;;6271067;22;20012;-75
2022/06/26 05:39:10;;;;;;;1.98;1.17;;;17.90;99.90;;;;;;6271487;22;20434;-76
2022/06/26 05:41:36;;;;;;;2.13;1.02;;;17.90;99.90;;;;;;6270650;22;20018;-75
2022/06/26 05:44:02;;;;;;;3.25;1.10;;;17.90;99.90;;;;;;6246522;22;20049;-75
2022/06/26 05:46:27;;;;;;;2.20;1.23;;;18.00;99.90;;;;;;6298499;22;20068;-75
2022/06/26 05:48:53;;;;;;;4.03;1.20;;;18.10;99.90;;;;;;6271676;22;20057;-75
2022/06/26 05:51:19;;;;;;;1.25;1.05;;;18.20;99.90;;;;;;6296514;22;20341;-76
2022/06/26 05:53:44;;;;;;;2.78;1.30;;;18.30;99.90;;;;;;6245979;22;20396;-76
2022/06/26 05:56:10;;;;;;;1.58;1.10;;;18.40;99.90;;;;;;6272011;22;20019;-75
2022/06/26 05:58:36;;;;;;;5.32;1.40;;;18.40;99.90;;;;;;6272434;22;20054;-77
2022/06/26 06:01:02;;;;;;;1.35;1.23;;;18.50;99.90;;;;;;6273294;22;20011;-77
2022/06/26 06:03:27;;;;;;;2.08;1.30;;;18.60;99.90;;;;;;6272958;22;20030;-76
2022/06/26 06:05:53;;;;;;;2.55;1.25;;;18.60;99.90;;;;;;6273679;22;20015;-77
2022/06/26 06:08:19;;;;;;;1.40;1.30;;;18.70;99.90;;;;;;6272323;22;20057;-76
2022/06/26 06:10:45;;;;;;;2.03;1.38;;;18.70;99.90;;;;;;6247444;22;20023;-74
2022/06/26 06:13:11;;;;;;;1.88;1.42;;;18.60;99.90;;;;;;6273200;22;20015;-75
2022/06/26 06:15:36;;;;;;;3.92;2.58;;;18.60;99.90;;;;;;6299860;22;20090;-76
2022/06/26 06:18:02;;;;;;;2.38;1.70;;;18.60;99.90;;;;;;6273418;22;20027;-75
2022/06/26 06:20:28;;;;;;;1.60;1.42;;;18.60;99.90;;;;;;6247030;22;20015;-76
2022/06/26 06:23:03;;;;;;;2.88;1.60;;;18.70;99.90;;;;;;6248182;22;20511;-77
2022/06/26 06:25:29;;;;;;;3.00;1.63;;;18.70;99.90;;;;;;6246701;22;20022;-76
2022/06/26 06:27:55;;;;;;;2.35;1.60;;;18.70;99.90;;;;;;6273039;22;20019;-77
2022/06/26 06:30:21;;;;;;;3.75;1.63;;;18.70;99.90;;;;;;6272572;22;20018;-75
2022/06/26 06:32:46;;;;;;;3.80;1.80;;;18.70;99.90;;;;;;6273256;22;20385;-76
2022/06/26 06:35:13;;;;;;;3.63;1.65;;;18.80;99.90;;;;;;6273260;22;20031;-77
2022/06/26 06:37:41;;;;;;;2.60;1.67;;;18.80;99.90;;;;;;6271989;22;20070;-76
2022/06/26 06:40:07;;;;;;;2.85;1.90;;;18.90;99.90;;;;;;6247879;22;20175;-76
2022/06/26 06:42:33;;;;;;;7.63;2.33;;;18.90;99.90;;;;;;6246627;22;20022;-76
2022/06/26 06:44:59;;;;;;;1.75;1.63;;;18.90;99.90;;;;;;6272976;22;20454;-77
2022/06/26 06:47:25;;;;;;;5.45;2.30;;;18.90;99.90;;;;;;6272317;22;20099;-76
2022/06/26 06:49:50;;;;;;;2.42;2.05;;;18.90;99.90;;;;;;6247369;22;20050;-76
2022/06/26 06:52:16;;;;;;;2.20;1.65;;;18.90;99.90;;;;;;6272975;22;20740;-76
2022/06/26 06:54:42;;;;;;;2.83;1.98;;;18.90;99.90;;;;;;6272650;22;20395;-76
2022/06/26 06:57:08;;;;;;;2.00;1.75;;;19.00;99.90;;;;;;6299245;22;20016;-77
2022/06/26 06:59:33;;;;;;;2.15;2.05;;;19.10;99.90;;;;;;6271557;22;20457;-76
2022/06/26 07:01:59;;;;;;;2.67;2.47;;;19.10;99.90;;;;;;6272659;22;20019;-76
2022/06/26 07:04:25;;;;;;;2.45;2.25;;;19.10;99.90;;;;;;6272380;22;20026;-76
2022/06/26 07:06:51;;;;;;;3.03;2.72;;;19.10;99.90;;;;;;6272618;22;20054;-76
2022/06/26 07:09:16;;;;;;;2.95;2.75;;;19.20;99.90;;;;;;6271396;22;20015;-75
2022/06/26 07:11:42;;;;;;;3.38;2.70;;;19.20;99.90;;;;;;6268875;22;20028;-77
2022/06/26 07:14:08;;;;;;;3.30;3.00;;;19.30;99.90;;;;;;6270312;22;20053;-76
2022/06/26 07:16:35;;;;;;;5.90;3.17;;;19.40;99.90;;;;;;6269297;22;20123;-76
2022/06/26 07:19:01;;;;;;;3.60;3.08;;;19.50;99.90;;;;;;6269608;22;20014;-76
2022/06/26 07:21:27;;;;;;;3.78;3.38;;;19.40;99.90;;;;;;6268992;22;20102;-75
2022/06/26 07:23:53;;;;;;;4.30;3.17;;;19.40;99.90;;;;;;6270051;22;20053;-75
2022/06/26 07:26:19;;;;;;;3.65;3.30;;;19.40;99.90;;;;;;6269834;22;20059;-78
2022/06/26 07:28:45;;;;;;;5.20;3.42;;;19.40;99.90;;;;;;6269933;22;20454;-77
2022/06/26 07:31:10;;;;;;;3.83;3.35;;;19.40;99.90;;;;;;6269542;22;20354;-76
2022/06/26 07:36:20;;;;;;;6.72;3.78;;;19.60;99.90;;;;;;6248599;22;20081;-75
2022/06/26 07:38:46;;;;;;;3.72;3.40;;;19.60;99.90;;;;;;6269559;22;20587;-75
2022/06/26 07:41:12;;;;;;;5.18;3.50;;;19.50;99.90;;;;;;6272632;22;20189;-77
2022/06/26 07:43:38;;;;;;;5.22;3.78;;;19.50;99.90;;;;;;6271812;22;20058;-75
2022/06/26 07:46:03;;;;;;;3.95;3.60;;;19.50;99.90;;;;;;6221567;22;20019;-76
2022/06/26 07:48:29;;;;;;;5.80;4.35;;;19.50;99.90;;;;;;6299456;22;20080;-76
2022/06/26 07:50:55;;;;;;;4.43;3.75;;;19.60;99.90;;;;;;6272188;22;20042;-76
2022/06/26 07:53:21;;;;;;;4.95;4.22;;;19.80;99.90;;;;;;6300058;22;20073;-74
2022/06/26 07:55:47;;;;;;;6.68;4.45;;;19.90;99.90;;;;;;6271421;22;20038;-75
2022/06/26 07:58:13;;;;;;;7.63;4.75;;;20.20;99.90;;;;;;6271318;22;20484;-76
2022/06/26 08:00:39;;;;;;;6.07;4.60;;;20.40;99.90;;;;;;6271541;22;20019;-75
2022/06/26 08:03:10;;;;;;;7.97;5.57;;;20.50;99.90;;;;;;6272073;22;20319;-75
2022/06/26 08:05:37;;;;;;;9.23;5.85;;;20.60;99.90;;;;;;6271862;22;20471;-76
2022/06/26 08:08:04;;;;;;;8.98;6.80;;;20.70;99.90;;;;;;6245977;22;20069;-76
2022/06/26 08:10:30;;;;;;;6.90;5.65;;;20.80;99.90;;;;;;6272012;22;20417;-75
2022/06/26 08:12:56;;;;;;;8.65;6.75;;;20.60;99.90;;;;;;6271533;22;20019;-75
2022/06/26 08:15:23;;;;;;;7.20;6.10;;;20.40;99.90;;;;;;6272555;22;20812;-75
2022/06/26 08:17:49;;;;;;;7.60;6.55;;;20.20;99.90;;;;;;6246157;22;20019;-74
2022/06/26 08:20:14;;;;;;;8.77;6.30;;;19.90;99.90;;;;;;6271321;22;20019;-75
2022/06/26 08:22:40;;;;;;;9.57;6.75;;;19.70;99.90;;;;;;6271301;22;20026;-75
2022/06/26 08:25:06;;;;;;;7.45;6.70;;;19.50;99.90;;;;;;6272314;22;20046;-75
2022/06/26 08:27:32;;;;;;;7.75;7.00;;;19.50;99.90;;;;;;6271645;22;20090;-74
2022/06/26 08:29:58;;;;;;;8.35;6.85;;;19.70;99.90;;;;;;6271723;22;20383;-75
2022/06/26 08:32:24;;;;;;;9.82;7.93;;;20.20;99.90;;;;;;6246933;22;20386;-75
2022/06/26 08:34:50;;;;;;;11.43;7.75;;;20.80;99.90;;;;;;6271601;22;20015;-75
2022/06/26 08:37:18;;;;;;;8.63;7.13;;;21.00;99.90;;;;;;6271814;22;20109;-77
2022/06/26 08:39:44;;;;;;;9.10;7.00;;;21.10;99.90;;;;;;6270774;22;20015;-76
2022/06/26 08:42:10;;;;;;;8.32;7.40;;;20.70;99.90;;;;;;6296903;22;20023;-75
2022/06/26 08:44:42;;;;;;;8.52;6.35;;;20.40;99.90;;;;;;6296799;22;20288;-74
2022/06/26 08:47:09;;;;;;;9.65;6.80;;;20.20;99.90;;;;;;6246884;22;20401;-76
2022/06/26 08:49:35;;;;;;;7.97;6.93;;;20.30;99.90;;;;;;6273379;22;20030;-77
2022/06/26 08:52:02;;;;;;;9.27;6.40;;;20.60;99.90;;;;;;6270513;22;20019;-76
2022/06/26 08:54:29;;;;;;;11.23;6.50;;;20.70;99.90;;;;;;6270956;22;20094;-78
2022/06/26 08:56:56;;;;;;;6.00;5.50;;;20.60;99.90;;;;;;6270651;22;20026;-77
2022/06/26 08:59:21;;;;;;;6.47;5.60;;;20.40;99.90;;;;;;6271470;22;20023;-75
2022/06/26 09:01:47;;;;;;;7.28;5.55;;;20.50;99.90;;;;;;6245535;22;20384;-75
2022/06/26 09:04:14;;;;;;;7.28;5.35;;;20.40;99.90;;;;;;6270908;22;20068;-76
2022/06/26 09:06:42;;;;;;;6.88;5.93;;;20.40;99.90;;;;;;6271242;22;20456;-76
2022/06/26 09:09:22;;;;;;;8.07;6.55;;;20.40;99.90;;;;;;6270819;22;20050;-76
2022/06/26 09:11:50;;;;;;;8.65;6.55;;;20.40;99.90;;;;;;6271370;22;20024;-75
2022/06/26 09:14:16;;;;;;;6.40;5.78;;;20.70;99.90;;;;;;6244094;22;20454;-75
2022/06/26 09:16:44;;;;;;;11.13;6.40;;;21.20;99.90;;;;;;6270675;22;20023;-76
2022/06/26 09:19:12;;;;;;;6.85;6.22;;;21.60;99.90;;;;;;6270176;22;20019;-77
2022/06/26 09:21:39;;;;;;;7.43;6.25;;;21.90;99.90;;;;;;6270444;22;20442;-75
2022/06/26 09:24:11;;;;;;;9.93;6.78;;;21.80;99.90;;;;;;6298555;22;20015;-77
2022/06/26 09:26:38;;;;;;;4.00;3.60;;;21.70;99.90;;;;;;6245075;22;20061;-76
2022/06/26 09:29:15;;;;;;;4.35;3.95;;;22.00;99.90;;;;;;6271525;22;20015;-76
2022/06/26 09:31:42;;;;;;;6.35;4.20;;;22.10;99.90;;;;;;6271990;22;20425;-74
2022/06/26 09:34:24;;;;;;;5.93;3.70;;;22.40;99.70;;;;;;6273116;22;20544;-77
2022/06/26 09:37:10;;;;;;;3.60;3.13;;;22.60;99.90;;;;;;6272888;22;20320;-76
2022/06/26 09:39:36;;;;;;;4.55;3.38;;;22.70;92.50;;;;;;6271986;22;20028;-76
2022/06/26 09:42:19;;;;;;;3.75;2.97;;;22.60;94.10;;;;;;6273167;22;20026;-75
2022/06/26 09:44:49;;;;;;;5.95;2.85;;;22.80;90.90;;;;;;6270709;22;20015;-76
2022/06/26 09:47:22;;;;;;;4.10;2.67;;;22.70;91.10;;;;;;6247526;22;20019;-76
2022/06/26 09:49:51;;;;;;;7.45;3.88;;;22.40;94.50;;;;;;6272628;22;20357;-75
2022/06/26 09:52:17;;;;;;;;;;;22.10;98.10;;;;;;6273224;22;20012;-76
2022/06/26 09:54:44;;;;;;;6.60;3.63;;;21.70;98.50;;;;;;6272581;22;20317;-76
2022/06/26 09:57:11;;;;;;;4.47;3.58;;;21.70;96.50;;;;;;6270714;22;20073;-77
2022/06/26 09:59:39;;;;;;;3.53;1.95;;;21.50;99.90;;;;;;6269625;22;20038;-77
2022/06/26 10:07:39;;;;;;;3.38;2.47;;;21.40;93.70;;;;;;6269698;22;20076;-77
2022/06/26 10:10:05;;;;;;;2.42;1.50;;;21.90;93.20;;;;;;6269230;22;20019;-76
2022/06/26 10:12:32;;;;;;;4.07;2.58;;;22.30;98.60;;;;;;6269770;22;20019;-77
2022/06/26 10:14:59;;;;;;;6.20;2.80;;;22.50;85.30;;;;;;6244861;22;20403;-76
2022/06/26 10:17:53;;;;;;;5.03;2.50;;;22.60;84.00;;;;;;6246780;22;20384;-77
2022/06/26 10:20:21;;;;;;;3.08;2.28;;;22.90;86.00;;;;;;6272957;22;20469;-76
2022/06/26 10:22:47;;;;;;;3.13;2.10;;;23.00;92.90;;;;;;6246004;22;20019;-76
2022/06/26 10:25:25;;;;;;;3.92;2.17;;;23.20;90.60;;;;;;6221818;22;20088;-77
2022/06/26 10:27:51;;;;;;;2.90;2.15;;;23.00;82.70;;;;;;6272245;22;20019;-77
2022/06/26 10:30:26;;;;;;;4.68;2.25;;;23.00;75.40;;;;;;6272509;22;20011;-75
2022/06/26 10:33:16;;;;;;;2.25;1.40;;;22.70;86.90;;;;;;6246823;22;20027;-76
2022/06/26 10:35:46;;;;;;;4.00;1.30;;;22.60;88.70;;;;;;6271660;22;20392;-75
2022/06/26 10:38:23;;;;;;;1.60;1.25;;;22.60;82.80;;;;;;6272499;22;20065;-76
2022/06/26 10:43:55;;;;;;;5.32;1.73;;;23.00;90.80;;;;;;6271337;22;20059;-75
2022/06/26 10:46:21;;;;;;;3.70;1.60;;;23.10;83.70;;;;;;6272006;22;20015;-77
2022/06/26 10:48:54;;;;;;;2.95;1.70;;;23.30;83.60;;;;;;6271051;22;20042;-76
2022/06/26 10:51:29;;;;;;;3.38;1.55;;;23.40;80.50;;;;;;6246704;22;20019;-77
2022/06/26 10:53:57;;;;;;;4.10;1.63;;;23.30;82.70;;;;;;6270891;22;20072;-76
2022/06/26 10:56:23;;;;;;;2.95;1.42;;;23.20;73.50;;;;;;6271865;22;20055;-76
2022/06/26 10:58:57;;;;;;;2.10;1.35;;;23.20;65.10;;;;;;6271503;22;20748;-77
2022/06/26 11:01:24;;;;;;;2.58;1.45;;;23.10;70.30;;;;;;6271572;22;20027;-75
2022/06/26 11:03:49;;;;;;;2.53;1.40;;;22.80;59.70;;;;;;6271729;22;20027;-75
2022/06/26 11:06:16;;;;;;;2.78;1.67;;;22.50;65.80;;;;;;6272166;22;20034;-77
2022/06/26 11:08:50;;;;;;;5.63;1.88;;;22.30;73.40;;;;;;6269942;22;20026;-76
2022/06/26 11:11:23;;;;;;;4.57;1.33;;;22.00;78.10;;;;;;6271817;22;20027;-76
2022/06/26 11:13:54;;;;;;;2.90;1.58;;;21.90;91.00;;;;;;6271033;22;20019;-75
2022/06/26 11:16:44;;;;;;;2.22;1.23;;;21.90;85.00;;;;;;6272752;22;20019;-75
2022/06/26 11:22:27;;;;;;;2.95;1.58;;;22.40;69.10;;;;;;6246966;22;20023;-76
2022/06/26 11:24:55;;;;;;;3.90;1.95;;;22.60;80.10;;;;;;6272163;22;20015;-77
2022/06/26 11:27:22;;;;;;;3.17;1.50;;;22.70;69.10;;;;;;6245930;22;20019;-77
2022/06/26 11:29:48;;;;;;;3.13;1.55;;;22.60;71.40;;;;;;6271510;22;20091;-76
2022/06/26 11:32:14;;;;;;;2.30;1.30;;;22.50;76.60;;;;;;6271469;22;20505;-77
2022/06/26 11:34:54;;;;;;;1.50;1.40;;;22.50;84.90;;;;;;6272053;22;20016;-77
2022/06/26 11:37:37;;;;;;;4.43;2.05;;;22.40;73.20;;;;;;6272815;22;20277;-77
2022/06/26 11:40:17;;;;;;;2.08;1.60;;;22.30;73.30;;;;;;6271606;22;20388;-77
2022/06/26 11:42:43;;;;;;;2.50;1.55;;;22.20;85.60;;;;;;6272492;22;20434;-75
2022/06/26 11:45:09;;;;;;;3.55;2.00;;;22.20;80.40;;;;;;6271158;22;20021;-76
2022/06/26 11:47:38;;;;;;;2.42;1.75;;;22.30;64.50;;;;;;6272705;22;20090;-77
2022/06/26 11:50:04;;;;;;;2.67;1.40;;;22.50;78.80;;;;;;6270367;22;20081;-75
2022/06/26 11:52:30;;;;;;;3.30;1.50;;;22.60;74.70;;;;;;6272225;22;20019;-76
2022/06/26 11:55:00;;;;;;;1.55;1.45;;;22.60;73.70;;;;;;6271736;22;20092;-78
2022/06/26 11:57:27;;;;;;;3.05;1.48;;;22.60;85.30;;;;;;6271889;22;20130;-77
2022/06/26 11:59:52;;;;;;;2.60;1.50;;;22.70;78.30;;;;;;6271683;22;20019;-78
2022/06/26 12:02:23;;;;;;;2.60;1.35;;;22.70;71.60;;;;;;6271350;22;20015;-76
2022/06/26 12:05:00;;;;;;;1.48;1.20;;;22.80;72.70;;;;;;6271205;22;20090;-77
2022/06/26 12:07:38;;;;;;;2.55;1.25;;;22.90;73.90;;;;;;6271647;22;20038;-75
2022/06/26 12:10:04;;;;;;;2.00;1.40;;;23.00;72.90;;;;;;6270860;22;20015;-77
2022/06/26 12:12:30;;;;;;;1.30;1.10;;;23.30;69.50;;;;;;6272305;22;20015;-75
2022/06/26 12:14:55;;;;;;;3.47;1.38;;;23.50;83.80;;;;;;6245289;22;20449;-77
2022/06/26 12:17:23;;;;;;;4.07;1.55;;;23.60;75.60;;;;;;6297873;22;20019;-77
2022/06/26 12:19:49;;;;;;;2.08;1.20;;;23.80;60.00;;;;;;6271007;22;20050;-76
2022/06/26 12:22:28;;;;;;;3.67;1.13;;;23.70;59.50;;;;;;6271858;22;20396;-76
2022/06/26 12:24:56;;;;;;;5.53;1.42;;;23.80;53.90;;;;;;6245602;22;20019;-77
2022/06/26 12:27:35;;;;;;;2.80;1.30;;;23.80;72.50;;;;;;6271572;22;20012;-78
2022/06/26 12:30:14;;;;;;;3.63;1.40;;;23.90;59.70;;;;;;6271743;22;20015;-76
2022/06/26 12:32:39;;;;;;;1.73;1.10;;;23.70;66.30;;;;;;6271118;22;20030;-78
2022/06/26 12:35:05;;;;;;;3.65;1.00;;;23.60;69.00;;;;;;6271280;22;20015;-77
2022/06/26 12:37:31;;;;;;;4.53;1.20;;;23.60;63.90;;;;;;6271829;22;20104;-78
2022/06/26 12:39:56;;;;;;;2.85;1.20;;;23.70;71.40;;;;;;6298591;22;20016;-77
2022/06/26 12:42:22;;;;;;;2.13;1.23;;;23.90;68.80;;;;;;6272025;22;20084;-78
2022/06/26 12:44:48;;;;;;;7.63;1.40;;;23.90;60.60;;;;;;6270543;22;20011;-78
2022/06/26 12:47:14;;;;;;;2.80;1.20;;;24.00;45.00;;;;;;6271917;22;20022;-78
2022/06/26 12:49:39;;;;;;;2.78;1.05;;;23.90;51.60;;;;;;6271141;22;20046;-77
2022/06/26 12:52:06;;;;;;;1.50;1.20;;;23.80;61.90;;;;;;6270759;22;20068;-78
2022/06/26 12:54:31;;;;;;;3.92;1.35;;;23.70;58.20;;;;;;6271488;22;20019;-76
2022/06/26 12:56:57;;;;;;;2.45;1.10;;;23.70;68.90;;;;;;6298319;22;20015;-76
2022/06/26 12:59:23;;;;;;;1.85;1.10;;;23.60;69.80;;;;;;6271442;22;20034;-78
2022/06/26 13:01:49;;;;;;;2.70;1.17;;;23.70;64.80;;;;;;6270582;22;20011;-78